Time;durP1;ratioP1;P1;durP2;ratioP2;P2;SDS_P1;SDS_P2;PMS_P1;PMS_P2;Temp;Humidity;BMP_temperature;BMP_pressure;BME280_temperature;BME280_humidity;BME280_pressure;Samples;Min_cycle;Max_cycle;Signal;HPM_P1;HPM_P2
2022/07/08 00:02:06;;;;;;;5.28;1.55;;;;;;;14.48;63.40;102922.16;5035798;28;20523;-75
2022/07/08 00:04:32;;;;;;;4.32;1.33;;;;;;;14.46;63.76;102929.16;5040020;28;20030;-75
2022/07/08 00:06:57;;;;;;;6.38;1.60;;;;;;;14.47;62.81;102928.28;5037308;28;20189;-75
2022/07/08 00:09:23;;;;;;;5.05;1.33;;;;;;;14.46;62.81;102931.78;5040399;28;20045;-75
2022/07/08 00:11:48;;;;;;;3.58;1.00;;;;;;;14.45;62.67;102935.28;5042950;28;20024;-75
2022/07/08 00:14:14;;;;;;;4.82;1.00;;;;;;;14.45;62.26;102927.41;5035383;28;20037;-75
2022/07/08 00:16:40;;;;;;;3.97;1.20;;;;;;;14.43;62.30;102932.69;5039270;28;20037;-75
2022/07/08 00:19:16;;;;;;;3.97;1.10;;;;;;;14.45;62.48;102937.91;5033917;28;20445;-75
2022/07/08 00:21:43;;;;;;;3.30;1.00;;;;;;;14.44;62.13;102944.00;5042953;28;20017;-75
2022/07/08 00:24:13;;;;;;;4.97;1.40;;;;;;;14.44;62.05;102944.00;5045362;28;20025;-75
2022/07/08 00:26:39;;;;;;;6.47;1.15;;;;;;;14.44;61.80;102944.00;5037668;28;20040;-75
2022/07/08 00:29:05;;;;;;;4.38;1.02;;;;;;;14.42;61.61;102944.91;5033240;28;20027;-75
2022/07/08 00:31:30;;;;;;;3.35;1.10;;;;;;;14.42;61.55;102941.41;5034223;28;20032;-75
2022/07/08 00:33:56;;;;;;;6.90;1.40;;;;;;;14.42;61.20;102939.66;5038632;28;20033;-75
2022/07/08 00:36:21;;;;;;;3.83;1.00;;;;;;;14.41;61.58;102937.06;5037820;28;20021;-75
2022/07/08 00:38:46;;;;;;;3.58;1.00;;;;;;;14.40;61.60;102933.56;5034781;28;20037;-75
2022/07/08 00:41:12;;;;;;;3.88;1.10;;;;;;;14.41;61.44;102939.69;5038371;28;20083;-74
2022/07/08 00:43:43;;;;;;;4.72;1.30;;;;;;;14.41;61.35;102937.91;5035146;28;20021;-75
2022/07/08 00:46:09;;;;;;;5.95;1.20;;;;;;;14.38;61.47;102937.94;5033769;28;20163;-75
2022/07/08 00:48:35;;;;;;;3.38;0.98;;;;;;;14.38;61.79;102935.31;5040192;28;20033;-75
2022/07/08 00:51:05;;;;;;;3.85;1.10;;;;;;;14.37;61.69;102938.81;5036692;28;20024;-75
2022/07/08 00:53:32;;;;;;;3.47;1.10;;;;;;;14.37;61.64;102928.34;5037328;28;20031;-75
2022/07/08 00:55:59;;;;;;;3.00;1.00;;;;;;;14.38;61.34;102940.56;5039586;28;20029;-75
2022/07/08 00:58:25;;;;;;;3.58;1.15;;;;;;;14.36;61.17;102937.06;5038824;28;20036;-75
2022/07/08 01:00:52;;;;;;;6.03;1.05;;;;;;;14.35;61.28;102935.34;5041131;28;20112;-75
2022/07/08 01:03:18;;;;;;;3.65;0.80;;;;;;;14.34;61.23;102937.97;5040941;28;20099;-75
2022/07/08 01:05:43;;;;;;;4.55;1.00;;;;;;;14.33;61.79;102944.97;5035272;28;20484;-74
2022/07/08 01:08:09;;;;;;;3.67;1.00;;;;;;;14.31;61.47;102944.13;5041116;28;20090;-75
2022/07/08 01:10:36;;;;;;;3.83;0.90;;;;;;;14.30;61.53;102945.00;5039044;28;20024;-75
2022/07/08 01:13:02;;;;;;;5.95;1.00;;;;;;;14.28;61.42;102949.38;5041358;28;20070;-75
2022/07/08 01:15:28;;;;;;;2.22;0.75;;;;;;;14.26;61.66;102948.50;5036361;28;21100;-75
2022/07/08 01:17:53;;;;;;;4.38;0.90;;;;;;;14.23;61.83;102948.53;5042905;28;20025;-75
2022/07/08 01:20:18;;;;;;;4.85;1.10;;;;;;;14.22;61.79;102952.91;5033969;28;20029;-75
2022/07/08 01:22:43;;;;;;;4.03;0.90;;;;;;;14.19;62.06;102944.19;5038160;28;20032;-75
2022/07/08 01:25:10;;;;;;;3.75;0.90;;;;;;;14.14;62.46;102946.00;5034260;28;20032;-74
2022/07/08 01:27:36;;;;;;;5.18;1.02;;;;;;;14.11;62.58;102941.63;5040865;28;20043;-75
2022/07/08 01:30:04;;;;;;;4.00;0.90;;;;;;;14.09;62.76;102946.88;5034963;28;20024;-75
2022/07/08 01:32:31;;;;;;;5.70;1.05;;;;;;;14.04;62.86;102943.41;5038121;28;20021;-75
2022/07/08 01:34:56;;;;;;;7.00;1.20;;;;;;;14.01;63.25;102947.81;5036262;28;20029;-75
2022/07/08 01:37:22;;;;;;;4.28;1.00;;;;;;;13.97;63.48;102944.34;5037186;28;20035;-75
2022/07/08 01:39:47;;;;;;;4.35;0.98;;;;;;;13.95;63.83;102940.88;5038792;28;21677;-75
2022/07/08 01:42:12;;;;;;;4.20;0.93;;;;;;;13.93;63.66;102940.00;5041458;28;20047;-75
2022/07/08 01:44:38;;;;;;;5.30;1.25;;;;;;;13.91;63.94;102947.00;5037768;28;20025;-75
2022/07/08 01:47:03;;;;;;;4.70;0.98;;;;;;;13.89;63.94;102939.16;5040812;28;20434;-74
2022/07/08 01:49:28;;;;;;;4.07;1.25;;;;;;;13.87;64.29;102940.91;5037763;28;20121;-75
2022/07/08 01:51:54;;;;;;;4.68;1.00;;;;;;;13.84;64.27;102933.09;5035789;28;20029;-75
2022/07/08 01:54:19;;;;;;;3.83;1.10;;;;;;;13.83;64.40;102933.97;5037014;28;20052;-75
2022/07/08 01:56:45;;;;;;;4.25;1.13;;;;;;;13.81;64.55;102927.88;5037198;28;20376;-75
2022/07/08 01:59:10;;;;;;;4.93;1.17;;;;;;;13.81;64.74;102928.75;5035864;28;20036;-75
2022/07/08 02:01:36;;;;;;;5.25;1.10;;;;;;;13.83;64.85;102930.50;5031806;28;20247;-75
2022/07/08 02:04:01;;;;;;;3.22;1.10;;;;;;;13.83;65.00;102925.25;5045572;28;20033;-75
2022/07/08 02:06:28;;;;;;;6.53;1.05;;;;;;;13.83;64.90;102931.34;5042046;28;20384;-75
2022/07/08 02:08:53;;;;;;;4.82;1.05;;;;;;;13.83;65.51;102935.72;5031482;28;20388;-75
2022/07/08 02:14:02;;;;;;;6.25;1.33;;;;;;;13.78;65.33;102928.75;5034331;28;20276;-75
2022/07/08 02:16:27;;;;;;;4.93;1.50;;;;;;;13.79;65.57;102947.94;5035950;28;20492;-75
2022/07/08 02:18:53;;;;;;;4.90;1.23;;;;;;;13.77;65.92;102950.56;5032222;28;20025;-75
2022/07/08 02:21:18;;;;;;;3.63;1.10;;;;;;;13.76;65.75;102950.56;5036541;28;20052;-74
2022/07/08 02:23:43;;;;;;;3.63;1.15;;;;;;;13.73;66.08;102950.59;5048056;28;20051;-74
2022/07/08 02:26:09;;;;;;;3.17;1.02;;;;;;;13.68;66.49;102950.59;5029695;28;20037;-75
2022/07/08 02:28:34;;;;;;;8.25;1.63;;;;;;;13.66;66.85;102944.53;5021773;28;20043;-75
2022/07/08 02:30:59;;;;;;;6.75;1.30;;;;;;;13.63;67.26;102939.31;5040045;28;20017;-75
2022/07/08 02:33:25;;;;;;;6.05;1.60;;;;;;;13.60;67.40;102934.94;5031649;28;20025;-75
2022/07/08 02:35:50;;;;;;;4.82;1.50;;;;;;;13.60;67.49;102940.16;5037130;28;20060;-74
2022/07/08 02:38:15;;;;;;;5.22;1.42;;;;;;;13.58;67.75;102941.06;5038774;28;20468;-75
2022/07/08 02:40:40;;;;;;;10.60;1.63;;;;;;;13.58;67.78;102949.75;5044020;28;20176;-75
2022/07/08 02:43:09;;;;;;;4.15;1.60;;;;;;;13.56;68.24;102948.94;5039260;28;20048;-75
2022/07/08 02:45:35;;;;;;;5.18;1.48;;;;;;;13.53;68.20;102948.94;5015223;28;20037;-75
2022/07/08 02:48:00;;;;;;;4.70;1.65;;;;;;;13.51;68.40;102946.31;5045358;28;20041;-75
2022/07/08 02:50:26;;;;;;;4.75;1.50;;;;;;;13.49;68.09;102953.28;5035200;28;20472;-75
2022/07/08 02:52:52;;;;;;;6.65;1.80;;;;;;;13.46;68.74;102942.88;5037704;28;20070;-75
2022/07/08 02:55:17;;;;;;;6.18;1.70;;;;;;;13.43;68.60;102948.09;5036544;28;20472;-75
2022/07/08 02:57:43;;;;;;;6.28;1.70;;;;;;;13.41;68.73;102941.16;5035497;28;20033;-74
2022/07/08 03:00:09;;;;;;;7.68;1.85;;;;;;;13.38;68.91;102949.81;5031908;28;20083;-75
2022/07/08 03:02:34;;;;;;;6.70;1.75;;;;;;;13.36;69.09;102947.22;5029222;28;20033;-74
2022/07/08 03:05:00;;;;;;;6.80;1.80;;;;;;;13.33;68.99;102954.19;5028611;28;20047;-75
2022/07/08 03:07:26;;;;;;;7.75;1.95;;;;;;;13.30;69.24;102951.59;5030497;28;20427;-75
2022/07/08 03:09:51;;;;;;;6.22;1.73;;;;;;;13.27;69.37;102952.47;5044924;28;20036;-75
2022/07/08 03:12:16;;;;;;;6.13;2.10;;;;;;;13.24;69.55;102946.38;5042174;28;20380;-75
2022/07/08 03:14:42;;;;;;;5.88;1.92;;;;;;;13.23;69.68;102948.16;5042849;28;20032;-75
2022/07/08 03:17:07;;;;;;;15.73;2.42;;;;;;;13.23;69.52;102947.25;5037570;28;20040;-75
2022/07/08 03:19:32;;;;;;;6.90;1.70;;;;;;;13.20;69.72;102949.00;5039253;28;20051;-74
2022/07/08 03:21:57;;;;;;;6.75;1.73;;;;;;;13.17;69.72;102950.78;5038528;28;20020;-75
2022/07/08 03:24:23;;;;;;;4.93;1.83;;;;;;;13.15;69.99;102948.13;5039676;28;20055;-75
2022/07/08 03:26:48;;;;;;;6.57;2.05;;;;;;;13.13;70.05;102949.91;5046850;28;20025;-74
2022/07/08 03:29:13;;;;;;;8.75;2.17;;;;;;;13.12;70.06;102952.50;5040482;28;20052;-75
2022/07/08 03:31:39;;;;;;;5.97;2.30;;;;;;;13.11;70.07;102951.66;5046945;28;20047;-75
2022/07/08 03:34:04;;;;;;;7.03;2.00;;;;;;;13.09;70.05;102947.28;5047390;28;20029;-75
2022/07/08 03:36:30;;;;;;;8.35;2.08;;;;;;;13.09;70.30;102952.50;5040411;28;20045;-74
2022/07/08 03:38:55;;;;;;;7.82;2.10;;;;;;;13.06;70.21;102956.00;5041626;28;20460;-74
2022/07/08 03:41:20;;;;;;;5.68;1.98;;;;;;;13.05;70.48;102951.66;5009480;28;20048;-74
2022/07/08 03:43:52;;;;;;;7.88;1.90;;;;;;;13.03;70.01;102961.25;5004223;28;20036;-74
2022/07/08 03:46:19;;;;;;;7.72;2.00;;;;;;;13.03;70.82;102963.84;5024739;28;20465;-74
2022/07/08 03:48:45;;;;;;;6.28;1.85;;;;;;;13.01;70.83;102965.59;5020883;28;20037;-75
2022/07/08 03:51:10;;;;;;;11.00;2.22;;;;;;;13.00;70.96;102963.84;5022655;28;20026;-75
2022/07/08 03:53:36;;;;;;;8.32;2.20;;;;;;;12.99;70.80;102964.72;5020827;28;20025;-74
2022/07/08 03:56:02;;;;;;;5.95;2.20;;;;;;;13.00;70.84;102958.63;5019022;28;20037;-75
2022/07/08 03:58:28;;;;;;;8.50;2.00;;;;;;;12.99;71.18;102964.72;5016978;28;20030;-75
2022/07/08 04:00:53;;;;;;;8.65;2.15;;;;;;;13.00;70.82;102966.47;5019272;28;20036;-74
2022/07/08 04:03:18;;;;;;;5.57;2.20;;;;;;;13.00;70.87;102959.53;5024530;28;20032;-75
2022/07/08 04:05:43;;;;;;;6.93;2.00;;;;;;;13.01;70.90;102963.00;5022841;28;20104;-74
2022/07/08 04:08:09;;;;;;;8.05;2.20;;;;;;;12.99;71.15;102960.38;5019375;28;20022;-75
2022/07/08 04:10:34;;;;;;;5.85;1.90;;;;;;;13.00;71.24;102958.63;5020220;28;20045;-75
2022/07/08 04:12:59;;;;;;;9.07;2.47;;;;;;;12.99;71.16;102965.63;5025913;28;20021;-75
2022/07/08 04:15:25;;;;;;;6.53;2.30;;;;;;;13.01;71.08;102963.00;5021232;28;20033;-75
2022/07/08 04:17:50;;;;;;;5.32;1.88;;;;;;;13.01;71.61;102960.38;5016963;28;20034;-75
2022/07/08 04:20:15;;;;;;;4.95;1.83;;;;;;;13.02;71.57;102968.22;5023560;28;20032;-75
2022/07/08 04:22:40;;;;;;;7.13;2.22;;;;;;;13.03;71.62;102971.69;5025224;28;20049;-75
2022/07/08 04:25:06;;;;;;;8.52;2.40;;;;;;;13.04;71.73;102976.06;5026217;28;20120;-74
2022/07/08 04:27:32;;;;;;;4.22;1.83;;;;;;;13.05;71.40;102968.22;5002326;28;20033;-75
2022/07/08 04:29:57;;;;;;;6.05;1.92;;;;;;;13.08;71.47;102962.13;5023385;28;20038;-75
2022/07/08 04:32:22;;;;;;;5.90;2.13;;;;;;;13.11;71.52;102969.94;5018424;28;20032;-75
2022/07/08 04:34:48;;;;;;;6.15;2.13;;;;;;;13.12;71.75;102978.66;5016025;28;20033;-75
2022/07/08 04:37:14;;;;;;;6.35;1.98;;;;;;;13.12;71.55;102965.59;5022808;28;20028;-75
2022/07/08 04:39:39;;;;;;;4.13;1.83;;;;;;;13.14;71.84;102967.34;5025963;28;20203;-75
2022/07/08 04:42:05;;;;;;;6.57;2.55;;;;;;;13.16;71.86;102970.78;5022695;28;20109;-75
2022/07/08 04:44:30;;;;;;;6.68;2.00;;;;;;;13.20;71.86;102983.00;5023763;28;20045;-75
2022/07/08 04:46:55;;;;;;;6.28;1.70;;;;;;;13.25;71.66;102985.59;5023880;28;20025;-75
2022/07/08 04:49:21;;;;;;;6.63;2.15;;;;;;;13.28;71.29;102990.81;5024326;28;20029;-75
2022/07/08 04:51:46;;;;;;;5.53;1.80;;;;;;;13.31;71.33;102995.19;5021305;28;20017;-75
2022/07/08 04:54:11;;;;;;;4.45;2.08;;;;;;;13.33;71.44;103004.75;5020602;28;20532;-75
2022/07/08 04:56:36;;;;;;;6.10;1.98;;;;;;;13.34;71.79;102989.91;5018112;28;20022;-75
2022/07/08 04:59:02;;;;;;;4.13;2.20;;;;;;;13.38;71.80;102996.88;5021018;28;20022;-75
2022/07/08 05:01:27;;;;;;;3.70;1.60;;;;;;;13.43;71.82;103000.41;5016091;28;20473;-74
2022/07/08 05:03:54;;;;;;;7.10;2.05;;;;;;;13.46;71.41;103003.00;5016390;28;20021;-75
2022/07/08 05:06:19;;;;;;;6.35;2.30;;;;;;;13.49;71.32;103008.19;5018597;28;20024;-75
2022/07/08 05:08:44;;;;;;;6.25;1.88;;;;;;;13.53;71.65;103014.31;5018681;28;20025;-75
2022/07/08 05:11:09;;;;;;;7.78;2.15;;;;;;;13.57;71.89;103009.94;5015073;28;20029;-75
2022/07/08 05:13:35;;;;;;;6.65;2.30;;;;;;;13.60;71.13;103012.53;5015491;28;20108;-75
2022/07/08 05:16:00;;;;;;;5.45;1.98;;;;;;;13.62;70.89;103016.88;5015823;28;20424;-75
2022/07/08 05:18:25;;;;;;;5.32;2.20;;;;;;;13.65;71.46;103023.88;5016904;28;20021;-75
2022/07/08 05:20:51;;;;;;;5.55;2.10;;;;;;;13.66;71.20;103023.00;5020322;28;20547;-75
2022/07/08 05:23:16;;;;;;;7.32;2.03;;;;;;;13.70;71.46;103026.47;5018720;28;20226;-75
2022/07/08 05:25:41;;;;;;;6.97;2.20;;;;;;;13.72;71.38;103029.94;5027161;28;20412;-75
2022/07/08 05:28:06;;;;;;;5.47;1.83;;;;;;;13.75;70.95;103028.19;5022892;28;20032;-75
2022/07/08 05:30:32;;;;;;;10.48;2.00;;;;;;;13.78;70.46;103030.78;5025719;28;20029;-75
2022/07/08 05:32:57;;;;;;;5.20;1.67;;;;;;;13.80;69.98;103031.66;5009691;28;20037;-75
2022/07/08 05:35:23;;;;;;;4.55;1.50;;;;;;;13.84;70.72;103032.50;4987910;28;20044;-75
2022/07/08 05:37:48;;;;;;;6.50;1.70;;;;;;;13.87;69.56;103037.72;5018531;28;20025;-75
2022/07/08 05:40:13;;;;;;;4.60;1.30;;;;;;;13.91;69.16;103038.59;5019768;28;20147;-75
2022/07/08 05:42:39;;;;;;;4.50;1.60;;;;;;;13.92;69.78;103041.19;5052594;28;20029;-75
2022/07/08 05:45:06;;;;;;;3.53;1.42;;;;;;;13.94;70.20;103035.97;5064547;28;20020;-75
2022/07/08 05:47:31;;;;;;;7.88;1.95;;;;;;;13.98;69.72;103037.69;5061303;28;20021;-75
2022/07/08 05:49:57;;;;;;;4.72;1.50;;;;;;;14.01;69.21;103035.03;5071163;28;20490;-74
2022/07/08 05:52:23;;;;;;;7.50;1.75;;;;;;;14.04;69.30;103039.41;5067394;28;20100;-75
2022/07/08 05:54:48;;;;;;;8.45;1.95;;;;;;;14.07;69.60;103039.38;5071294;28;20028;-75
2022/07/08 05:57:14;;;;;;;5.70;1.80;;;;;;;14.10;69.42;103040.22;5068026;28;20051;-75
2022/07/08 05:59:40;;;;;;;10.38;2.10;;;;;;;14.14;68.93;103045.47;5068800;28;20017;-74
2022/07/08 06:02:05;;;;;;;7.43;2.20;;;;;;;14.19;69.09;103041.94;5063685;28;20531;-75
2022/07/08 06:04:30;;;;;;;6.05;1.80;;;;;;;14.21;69.99;103048.03;5066965;28;20090;-75
2022/07/08 06:06:56;;;;;;;4.90;1.80;;;;;;;14.25;69.74;103048.88;5069514;28;20028;-75
2022/07/08 06:09:22;;;;;;;7.53;2.00;;;;;;;14.30;69.05;103047.13;5070913;28;20234;-75
2022/07/08 06:11:47;;;;;;;6.28;1.60;;;;;;;14.34;69.69;103043.59;5067444;28;20031;-75
2022/07/08 06:14:12;;;;;;;4.57;1.80;;;;;;;14.39;69.57;103047.03;5071705;28;20487;-75
2022/07/08 06:16:38;;;;;;;7.50;1.95;;;;;;;14.44;68.55;103054.00;5069015;28;20021;-75
2022/07/08 06:19:03;;;;;;;9.13;1.60;;;;;;;14.45;67.89;103045.28;5070076;28;20052;-75
2022/07/08 06:21:28;;;;;;;7.43;1.63;;;;;;;14.45;69.08;103047.88;5071750;28;20493;-75
2022/07/08 06:23:53;;;;;;;4.47;1.60;;;;;;;14.48;68.99;103045.25;5071392;28;20033;-75
2022/07/08 06:26:19;;;;;;;5.93;1.48;;;;;;;14.55;68.26;103053.06;5070981;28;20107;-75
2022/07/08 06:28:44;;;;;;;5.10;1.27;;;;;;;14.59;67.72;103053.91;5068186;28;20035;-75
2022/07/08 06:31:09;;;;;;;7.30;1.60;;;;;;;14.61;67.77;103054.75;5069179;28;20115;-75
2022/07/08 06:33:35;;;;;;;5.10;1.70;;;;;;;14.62;67.90;103053.88;5066360;28;20028;-75
2022/07/08 06:36:00;;;;;;;7.15;1.73;;;;;;;14.65;68.01;103052.97;5069658;28;20025;-75
2022/07/08 06:38:25;;;;;;;10.77;1.80;;;;;;;14.68;67.71;103053.88;5067630;28;20027;-75
2022/07/08 06:40:51;;;;;;;6.57;1.60;;;;;;;14.73;68.09;103053.84;5072533;28;20123;-75
2022/07/08 06:43:17;;;;;;;6.75;1.60;;;;;;;14.79;68.33;103056.38;5071791;28;20041;-75
2022/07/08 06:45:43;;;;;;;4.55;1.75;;;;;;;14.83;67.86;103059.88;5069961;28;20075;-75
2022/07/08 06:48:08;;;;;;;5.82;1.77;;;;;;;14.89;67.64;103056.34;5071850;28;20499;-75
2022/07/08 06:50:33;;;;;;;6.35;1.70;;;;;;;14.90;68.42;103058.06;5069639;28;20111;-75
2022/07/08 06:52:58;;;;;;;8.10;1.90;;;;;;;14.94;67.66;103065.91;5066746;28;20074;-75
2022/07/08 06:55:24;;;;;;;8.57;1.83;;;;;;;14.95;67.80;103066.75;5069789;28;20028;-75
2022/07/08 06:57:49;;;;;;;6.30;1.60;;;;;;;14.99;68.01;103064.13;5074207;28;20021;-75
2022/07/08 07:00:16;;;;;;;4.78;1.55;;;;;;;15.06;67.91;103071.91;5074638;28;20036;-75
2022/07/08 07:02:41;;;;;;;6.15;1.80;;;;;;;15.09;67.64;103066.63;5070593;28;20103;-75
2022/07/08 07:05:08;;;;;;;6.10;1.60;;;;;;;15.14;66.77;103062.22;5071622;28;20111;-75
2022/07/08 07:07:33;;;;;;;5.50;1.73;;;;;;;15.15;67.15;103054.34;5072007;28;20139;-75
2022/07/08 07:09:59;;;;;;;5.95;1.75;;;;;;;15.22;66.96;103062.16;5067002;28;20519;-75
2022/07/08 07:12:25;;;;;;;5.32;1.60;;;;;;;15.25;67.48;103055.13;5072212;28;20043;-74
2022/07/08 07:14:51;;;;;;;5.97;1.40;;;;;;;15.29;66.49;103062.09;5072054;28;20051;-75
2022/07/08 07:17:18;;;;;;;5.75;1.80;;;;;;;15.36;67.43;103062.03;5072987;28;20387;-75
2022/07/08 07:19:43;;;;;;;5.10;1.38;;;;;;;15.44;66.05;103061.06;5069887;28;20436;-75
2022/07/08 07:22:08;;;;;;;10.35;1.50;;;;;;;15.54;66.80;103055.69;5070493;28;20032;-75
2022/07/08 07:24:33;;;;;;;6.90;1.50;;;;;;;15.60;65.62;103059.13;5069759;28;20028;-75
2022/07/08 07:26:59;;;;;;;6.05;1.45;;;;;;;15.62;65.65;103057.34;5070113;28;20028;-75
2022/07/08 07:29:24;;;;;;;4.78;1.42;;;;;;;15.60;66.00;103061.75;5073602;28;20032;-75
2022/07/08 07:31:49;;;;;;;7.63;1.48;;;;;;;15.59;65.79;103067.88;5070895;28;20447;-75
2022/07/08 07:34:15;;;;;;;5.50;1.40;;;;;;;15.58;66.44;103066.13;5071326;28;20028;-75
2022/07/08 07:36:40;;;;;;;6.20;1.42;;;;;;;15.66;65.82;103059.94;5071909;28;20024;-75
2022/07/08 07:39:07;;;;;;;5.93;1.70;;;;;;;15.72;65.87;103059.84;5073357;28;20024;-75
2022/07/08 07:41:33;;;;;;;8.15;1.48;;;;;;;15.75;66.19;103065.97;5068252;28;20021;-75
2022/07/08 07:43:58;;;;;;;6.47;1.50;;;;;;;15.77;64.69;103058.06;5069162;28;20114;-75
2022/07/08 07:46:23;;;;;;;5.60;1.60;;;;;;;15.80;64.67;103065.03;5069938;28;20043;-75
2022/07/08 07:48:48;;;;;;;4.72;1.50;;;;;;;15.83;66.31;103063.25;5069533;28;20020;-75
2022/07/08 07:51:14;;;;;;;5.93;1.45;;;;;;;15.90;64.75;103067.53;5050850;28;20024;-75
2022/07/08 07:53:39;;;;;;;5.05;1.25;;;;;;;15.97;65.01;103056.97;5072174;28;20029;-75
2022/07/08 07:56:05;;;;;;;4.95;1.30;;;;;;;16.01;64.07;103059.53;5071898;28;20048;-76
2022/07/08 07:58:30;;;;;;;7.32;1.48;;;;;;;16.06;63.74;103059.47;5072331;28;20029;-75
2022/07/08 08:00:55;;;;;;;3.85;1.10;;;;;;;16.10;63.88;103061.16;5067793;28;20028;-75
2022/07/08 08:03:21;;;;;;;5.07;1.27;;;;;;;16.15;64.93;103059.34;5065600;28;20067;-75
2022/07/08 08:05:46;;;;;;;3.90;1.20;;;;;;;16.23;65.26;103057.47;5068169;28;20029;-75
2022/07/08 08:08:12;;;;;;;6.70;1.45;;;;;;;16.34;65.79;103056.47;5070587;28;20394;-75
2022/07/08 08:10:38;;;;;;;3.03;1.17;;;;;;;16.40;63.92;103056.38;5068173;28;20565;-75
2022/07/08 08:13:04;;;;;;;3.88;1.30;;;;;;;16.43;63.70;103058.97;5066216;28;20036;-75
2022/07/08 08:15:30;;;;;;;4.72;1.23;;;;;;;16.46;61.92;103063.31;5067028;28;20082;-75
2022/07/08 08:17:57;;;;;;;5.25;1.35;;;;;;;16.39;61.46;103062.53;5062713;28;20430;-75
2022/07/08 08:20:28;;;;;;;5.95;1.30;;;;;;;16.38;62.38;103069.53;5061229;28;20025;-75
2022/07/08 08:22:54;;;;;;;6.93;1.40;;;;;;;16.40;61.49;103064.25;5063925;28;20348;-75
2022/07/08 08:25:20;;;;;;;5.20;1.20;;;;;;;16.45;63.60;103066.84;5063780;28;20415;-76
2022/07/08 08:27:46;;;;;;;3.88;1.30;;;;;;;16.51;62.22;103070.22;5064506;28;20048;-75
2022/07/08 08:30:12;;;;;;;9.40;1.55;;;;;;;16.56;62.81;103070.16;5062255;28;20028;-76
2022/07/08 08:32:38;;;;;;;4.07;1.20;;;;;;;16.62;62.25;103063.94;5067924;28;20037;-76
2022/07/08 08:35:04;;;;;;;4.95;1.60;;;;;;;16.67;62.77;103062.09;5065561;28;20506;-75
2022/07/08 08:37:30;;;;;;;6.13;1.60;;;;;;;16.74;63.22;103062.88;5063433;28;20025;-75
2022/07/08 08:39:55;;;;;;;4.25;1.45;;;;;;;16.80;62.10;103079.41;5069356;28;20040;-75
2022/07/08 08:42:21;;;;;;;6.15;1.50;;;;;;;16.78;61.94;103061.94;5068227;28;20028;-75
2022/07/08 08:44:50;;;;;;;5.78;1.30;;;;;;;16.81;62.09;103068.00;5070827;28;20020;-75
2022/07/08 08:47:23;;;;;;;5.03;1.17;;;;;;;16.88;62.76;103070.53;5069275;28;20043;-75
2022/07/08 08:49:51;;;;;;;6.53;1.33;;;;;;;16.94;61.18;103059.91;5064052;28;20108;-75
2022/07/08 08:52:17;;;;;;;5.10;1.20;;;;;;;16.98;60.30;103057.25;5056935;28;20039;-75
2022/07/08 08:54:43;;;;;;;3.72;1.10;;;;;;;17.06;62.19;103059.75;5060055;28;20043;-75
2022/07/08 08:57:08;;;;;;;5.07;1.20;;;;;;;17.11;58.43;103057.88;5061798;28;20487;-75
2022/07/08 08:59:35;;;;;;;2.35;0.85;;;;;;;17.12;57.39;103048.25;5064853;28;20146;-75
2022/07/08 09:02:01;;;;;;;3.97;1.33;;;;;;;17.14;58.04;103056.97;5050242;28;20111;-75
2022/07/08 09:04:30;;;;;;;5.60;1.10;;;;;;;17.16;58.54;103056.94;5067694;28;20399;-75
2022/07/08 09:06:58;;;;;;;6.40;1.20;;;;;;;17.19;58.38;103054.25;5059987;28;20028;-75
2022/07/08 09:09:23;;;;;;;5.50;1.00;;;;;;;17.22;58.08;103048.94;5061404;28;20028;-75
2022/07/08 09:11:48;;;;;;;6.22;1.23;;;;;;;17.29;60.49;103040.03;5068323;28;20032;-75
2022/07/08 09:14:14;;;;;;;4.57;1.40;;;;;;;17.40;59.54;103052.97;5070255;28;20021;-75
2022/07/08 09:16:40;;;;;;;4.97;1.23;;;;;;;17.54;58.80;103053.56;5051187;28;20036;-75
2022/07/08 09:19:15;;;;;;;2.88;1.00;;;;;;;17.68;58.91;103050.69;5071263;28;20024;-75
2022/07/08 09:21:51;;;;;;;5.88;1.05;;;;;;;17.84;59.21;103055.63;5063607;28;20475;-75
2022/07/08 09:24:18;;;;;;;3.97;1.10;;;;;;;17.95;57.74;103047.50;5059009;28;20032;-75
2022/07/08 09:26:43;;;;;;;4.50;1.13;;;;;;;18.02;57.06;103042.09;5058489;28;20111;-75
2022/07/08 09:29:09;;;;;;;3.83;0.90;;;;;;;18.11;56.92;103050.69;5056577;28;20552;-75
2022/07/08 09:31:35;;;;;;;3.90;1.48;;;;;;;18.16;56.39;103049.69;5060251;28;20483;-75
2022/07/08 09:34:05;;;;;;;2.97;0.90;;;;;;;18.24;55.82;103052.16;5057297;28;21138;-75
2022/07/08 09:36:43;;;;;;;3.90;1.00;;;;;;;18.31;57.65;103042.34;5057647;28;20123;-75
2022/07/08 09:39:21;;;;;;;3.63;1.30;;;;;;;18.39;56.41;103044.78;5054958;28;20037;-75
2022/07/08 09:41:47;;;;;;;5.40;1.02;;;;;;;18.50;54.77;103045.41;5057512;28;20029;-75
2022/07/08 09:44:22;;;;;;;8.00;1.20;;;;;;;18.58;55.63;103048.72;5056923;28;20020;-75
2022/07/08 09:46:48;;;;;;;4.90;1.15;;;;;;;18.59;52.72;103049.59;5037862;28;20029;-76
2022/07/08 09:49:30;;;;;;;4.53;1.13;;;;;;;18.60;54.09;103046.03;5057046;28;20035;-75
2022/07/08 09:51:56;;;;;;;;;;;;;;;18.66;56.54;103045.91;5039741;28;20021;-75
2022/07/08 09:54:22;;;;;;;5.45;1.20;;;;;;;18.70;55.93;103042.28;5058108;28;19928;-75
2022/07/08 09:57:01;;;;;;;4.95;0.98;;;;;;;18.77;56.50;103041.22;5059298;28;20029;-75
2022/07/08 09:59:28;;;;;;;5.20;1.35;;;;;;;18.84;56.22;103044.56;5055093;28;20044;-75
2022/07/08 10:01:54;;;;;;;7.60;1.45;;;;;;;18.83;55.59;103044.63;5057496;28;20358;-75
2022/07/08 10:04:20;;;;;;;4.63;1.10;;;;;;;18.80;56.27;103043.78;5056305;28;20115;-75
2022/07/08 10:06:46;;;;;;;3.90;1.00;;;;;;;18.82;55.52;103043.72;5056862;28;20037;-75
2022/07/08 10:09:11;;;;;;;4.13;1.00;;;;;;;18.80;55.33;103037.63;5058204;28;20020;-75
2022/07/08 10:11:38;;;;;;;7.40;1.23;;;;;;;18.85;56.90;103048.94;5059628;28;20047;-76
2022/07/08 10:14:05;;;;;;;4.68;1.27;;;;;;;18.89;55.49;103045.31;5057516;28;20040;-76
2022/07/08 10:16:33;;;;;;;4.25;0.98;;;;;;;18.99;56.06;103043.34;5059266;28;20025;-75
2022/07/08 10:18:59;;;;;;;8.55;1.50;;;;;;;19.06;57.14;103041.41;5059353;28;20024;-76
2022/07/08 10:21:27;;;;;;;7.78;1.38;;;;;;;19.14;57.64;103049.97;5057547;28;20063;-75
2022/07/08 10:23:54;;;;;;;4.18;1.25;;;;;;;19.16;55.74;103048.16;5059313;28;20058;-75
2022/07/08 10:26:24;;;;;;;4.40;1.23;;;;;;;19.18;56.71;103054.25;5056007;28;20036;-75
2022/07/08 10:29:10;;;;;;;5.13;1.10;;;;;;;19.19;56.62;103055.16;5060162;28;20095;-75
2022/07/08 10:31:46;;;;;;;4.00;1.17;;;;;;;19.23;56.66;103049.72;5054512;28;20040;-75
2022/07/08 10:34:13;;;;;;;4.15;1.17;;;;;;;19.28;56.91;103054.03;5055736;28;20511;-76
2022/07/08 10:36:51;;;;;;;4.00;1.15;;;;;;;19.31;56.12;103046.00;5061635;28;20032;-76
2022/07/08 10:39:25;;;;;;;4.90;1.40;;;;;;;19.29;56.77;103047.84;5059216;28;20404;-76
2022/07/08 10:42:03;;;;;;;4.75;1.40;;;;;;;19.28;57.17;103046.97;5063140;28;20032;-75
2022/07/08 10:44:43;;;;;;;4.95;1.60;;;;;;;19.30;56.48;103049.59;5064712;28;20395;-75
2022/07/08 10:47:13;;;;;;;4.50;1.42;;;;;;;19.30;55.46;103049.59;5066633;28;20025;-75
2022/07/08 10:49:46;;;;;;;4.85;1.40;;;;;;;19.32;57.00;103055.66;5064289;28;20017;-76
2022/07/08 10:52:13;;;;;;;4.20;1.17;;;;;;;19.29;56.12;103048.69;5046608;28;20029;-75
2022/07/08 10:54:38;;;;;;;4.65;1.13;;;;;;;19.29;57.12;103042.56;5066008;28;20028;-75
2022/07/08 10:57:16;;;;;;;3.88;1.38;;;;;;;19.28;57.57;103038.19;5064264;28;20387;-75
2022/07/08 10:59:59;;;;;;;3.50;1.10;;;;;;;19.27;57.02;103039.94;5064143;28;20025;-75
2022/07/08 11:02:26;;;;;;;4.57;1.30;;;;;;;19.26;56.23;103039.09;5062023;28;20028;-75
2022/07/08 11:04:53;;;;;;;4.90;1.55;;;;;;;19.28;57.35;103035.56;5062660;28;20023;-75
2022/07/08 11:07:28;;;;;;;3.83;1.20;;;;;;;19.32;56.63;103031.91;5042050;28;20489;-75
2022/07/08 11:10:04;;;;;;;3.28;1.27;;;;;;;19.41;58.01;103035.16;5063991;28;20029;-75
2022/07/08 11:12:32;;;;;;;3.08;1.40;;;;;;;19.47;55.83;103031.47;5064013;28;20020;-75
2022/07/08 11:14:59;;;;;;;4.53;1.30;;;;;;;19.58;55.88;103028.53;5059294;28;20017;-75
2022/07/08 11:17:27;;;;;;;3.22;1.02;;;;;;;19.73;56.77;103037.78;5059790;28;20039;-75
2022/07/08 11:19:54;;;;;;;3.50;1.40;;;;;;;19.81;55.18;103043.69;5066078;28;20069;-75
2022/07/08 11:22:20;;;;;;;3.25;1.25;;;;;;;19.87;57.05;103042.69;5042524;28;20509;-75
2022/07/08 11:24:47;;;;;;;3.70;1.35;;;;;;;19.87;55.36;103034.78;5052021;28;20356;-75